Argyle, New York
Current Conditions -  °F | °C
As of 11:53 PM on Sunday 21 Dec 2014 (Local Time) from KGFL Reporting Station
Overcast Overcast  
Wind Chill: -3°   Ceiling: 3800
Heat Index: -3°   Visibility: 9mi
Dew Point: -6°   Wind: 3mph
Humidity: 81%   Direction: 50°NE
Pressure: 30.37"   Gusts: NA
Location:  43.24°N, 73.49°W
Report Text: KGFL 220453Z AUTO 05003KT 9SM OVC038 M03/M06 A3037 RMK AO2 SLP295 T10281056 410171050
Loading
Personal Weather Stations






























Interactive Weather Map New forecast layout! Learn more

10-Day Weather Forecast

Advertisements
Track Severe Weather on mobile